Terminal Aerodrome Forecast
Issued by NWS Green Bay, WI

Home | Current Version | Previous Version | Text Only | Print | Product List | Glossary Off
Versions: 1 2 3 4 5 6 7 8 9 10 11 12 13 14 15 16 17 18 19 20 21 22 23 24 25

000
FTUS43 KGRB 091022 AAC
TAFGRB
TAF AMD
KGRB 091022Z 0910/1006 35013G20KT P6SM BKN035 OVC090
     FM091600 34014G24KT P6SM BKN035
     FM092000 32012G18KT P6SM SCT045
     FM092300 29006KT P6SM BKN100=

USA.gov is the U.S. government's official web portal to all federal, state and local government web resources and services.